Hauptseite
METAR-TAF:

METAR-TAF

Flughäfen :

Brüssel, Belgien

Flughafen Brüssel-Zaventem

Breite: 50-54N, Länge: 004-32E, Höhe: 55 m

Beobachtung

Neuester Wetterbericht von vor 26 Minuten, um 08:50 UTC
Wind 11 kt aus West, variierte zwischen Südwest und West/Nordwest
Temperatur 14°C
Luftfeuchtigkeit 67%
Luftdruck 1017 hPa
Sichtweite 10 km oder mehr
Aufgelockert bewölkt in der Höhe von 1500 ft

METAR: EBBR 230850Z 27011KT 230V290 9999 SCT015 14/08 Q1017 NOSIG

Zeit: 11:16 (09:16 UTC)

Prognose

Neuester Wetterbericht von vor 3 Stunden und 56 Minuten, um 05:20 UTC
Gültige Prognose vom 23 um 06 UTC bis 24 um 12 UTC
Wind 9 kt aus West
Sichtweite 10 km oder mehr
Leicht bewölkt in der Höhe von 3000 ft

TAF: EBBR 230520Z 2306/2412 26009KT 9999 FEW030

Wetterbeobachtungen und Prognosen von mehr als 4000 Flughäfen (METAR und TAF Bericht).

Die verfügbaren Stationen werden durch gelbe und rote Markierungen auf der Karte dargestellt.

Führen Sie die Maus auf sie, um den Namen der Station zu sehen.

Darauf klicken, um die Beobachtung von Wetterbeobachtungen und Prognosen zu sehen.

Um die Karte zu ändern : klicken Sie auf den grünen Tasten mit einem schwarzen Kreuz Zum Vergrößern, auf den grünen Button mit einem Gedankenstrich zu verkleinern, oder auf die grünen Pfeile für benachbarte Karten.


METAR-TAF: